createdAt,value
2019-03-04T00:01:25.346Z,97062.45
2019-03-04T00:03:52.957Z,97067.34
2019-03-04T00:06:20.524Z,97055.47
2019-03-04T00:08:48.164Z,97054.04
2019-03-04T00:11:15.781Z,97059.31
2019-03-04T00:13:43.377Z,97052.58
2019-03-04T00:16:10.922Z,97059.89
2019-03-04T00:18:38.557Z,97058.50
2019-03-04T00:21:06.173Z,97061.09
2019-03-04T00:23:33.852Z,97055.21
2019-03-04T00:26:01.547Z,97064.11
2019-03-04T00:28:29.255Z,97064.11
2019-03-04T00:30:56.917Z,97066.44
2019-03-04T00:33:24.595Z,97060.81
2019-03-04T00:35:52.401Z,97047.50
2019-03-04T00:38:19.998Z,97051.69
2019-03-04T00:40:47.642Z,97049.40
2019-03-04T00:43:15.369Z,97048.34
2019-03-04T00:45:44.731Z,97055.20
2019-03-04T00:48:12.339Z,97053.34
2019-03-04T00:50:40.606Z,97045.23
2019-03-04T00:53:08.257Z,97037.86
2019-03-04T00:55:35.846Z,97025.33
2019-03-04T00:58:03.563Z,97026.61
2019-03-04T01:00:31.173Z,97027.59
2019-03-04T01:02:58.850Z,97023.41
2019-03-04T01:05:26.364Z,97015.88
2019-03-04T01:07:54.002Z,97014.27
2019-03-04T01:10:21.637Z,97010.20
2019-03-04T01:12:49.294Z,97006.70
2019-03-04T01:15:17.969Z,97002.86
2019-03-04T01:17:45.663Z,97006.47
2019-03-04T01:20:14.472Z,97007.24
2019-03-04T01:22:42.108Z,97006.81
2019-03-04T01:25:14.196Z,96998.89
2019-03-04T01:27:41.751Z,97008.61
2019-03-04T01:30:12.392Z,96992.77
2019-03-04T01:32:40.002Z,96993.91
2019-03-04T01:35:07.561Z,96986.98
2019-03-04T01:37:35.266Z,96980.94
2019-03-04T01:40:02.859Z,96976.34
2019-03-04T01:42:30.455Z,96980.09
2019-03-04T01:44:58.067Z,96972.42
2019-03-04T01:47:25.667Z,96970.37
2019-03-04T01:49:54.295Z,96970.52
2019-03-04T01:52:21.911Z,96964.20
2019-03-04T01:54:49.440Z,96956.19
2019-03-04T01:57:17.025Z,96953.22
2019-03-04T01:59:44.583Z,96952.59
2019-03-04T02:02:12.184Z,96955.95
2019-03-04T02:04:39.874Z,96949.88
2019-03-04T02:07:07.495Z,96935.59
2019-03-04T02:09:36.074Z,96936.53
2019-03-04T02:12:04.113Z,96933.12
2019-03-04T02:14:31.728Z,96921.33
2019-03-04T02:16:59.870Z,96932.86
2019-03-04T02:19:27.424Z,96936.35
2019-03-04T02:21:56.624Z,96938.73
2019-03-04T02:24:25.396Z,96930.92
2019-03-04T02:26:54.670Z,96925.06
2019-03-04T02:29:23.361Z,96926.31
2019-03-04T02:31:50.967Z,96921.19
2019-03-04T02:34:19.620Z,96905.56
2019-03-04T02:36:47.215Z,96907.33
2019-03-04T02:39:14.752Z,96902.61
2019-03-04T02:41:42.398Z,96902.86
2019-03-04T02:44:09.980Z,96904.92
2019-03-04T02:46:37.585Z,96898.22
2019-03-04T02:49:05.200Z,96908.73
2019-03-04T02:51:32.781Z,96901.48
2019-03-04T02:54:00.344Z,96901.16
2019-03-04T02:56:29.021Z,96900.00
2019-03-04T02:58:56.618Z,96901.17
2019-03-04T03:01:24.351Z,96897.70
2019-03-04T03:03:51.893Z,96899.65
2019-03-04T03:06:19.551Z,96901.11
2019-03-04T03:08:47.158Z,96902.41
2019-03-04T03:11:14.754Z,96908.66
2019-03-04T03:13:43.316Z,96901.49
2019-03-04T03:16:10.919Z,96901.10
2019-03-04T03:18:39.727Z,96899.79
2019-03-04T03:21:07.351Z,96889.29
2019-03-04T03:23:34.932Z,96889.99
2019-03-04T03:26:02.544Z,96887.44
2019-03-04T03:28:30.151Z,96886.45
2019-03-04T03:30:57.752Z,96873.53
2019-03-04T03:33:25.398Z,96874.84
2019-03-04T03:35:52.937Z,96868.35
2019-03-04T03:38:20.581Z,96873.84
2019-03-04T03:40:48.131Z,96880.55
2019-03-04T03:43:15.863Z,96875.77
2019-03-04T03:45:43.457Z,96871.23
2019-03-04T03:48:11.062Z,96874.70
2019-03-04T03:50:38.617Z,96877.41
2019-03-04T03:53:06.234Z,96874.23
2019-03-04T03:55:33.813Z,96877.54
2019-03-04T03:58:01.431Z,96868.73
2019-03-04T04:00:28.989Z,96863.48
2019-03-04T04:02:56.778Z,96861.78
2019-03-04T04:05:24.353Z,96867.02
2019-03-04T04:07:51.902Z,96869.73
2019-03-04T04:10:19.703Z,96861.98
2019-03-04T04:12:47.228Z,96859.27
2019-03-04T04:15:15.016Z,96860.27
2019-03-04T04:17:42.557Z,96850.44
2019-03-04T04:20:10.469Z,96865.12
2019-03-04T04:22:38.619Z,96855.30
2019-03-04T04:25:06.711Z,96859.61
2019-03-04T04:27:34.257Z,96851.98
2019-03-04T04:30:02.102Z,96846.12
2019-03-04T04:32:29.664Z,96846.66
2019-03-04T04:34:57.204Z,96850.54
2019-03-04T04:37:24.752Z,96855.70
2019-03-04T04:39:52.328Z,96846.20
2019-03-04T04:42:19.866Z,96836.59
2019-03-04T04:44:47.427Z,96832.26
2019-03-04T04:47:14.993Z,96835.70
2019-03-04T04:49:42.606Z,96842.60
2019-03-04T04:52:10.163Z,96846.96
2019-03-04T04:54:37.757Z,96843.86
2019-03-04T04:57:05.354Z,96836.84
2019-03-04T04:59:32.946Z,96833.44
2019-03-04T05:02:00.514Z,96834.99
2019-03-04T05:04:28.113Z,96833.30
2019-03-04T05:06:55.707Z,96829.88
2019-03-04T05:09:23.302Z,96822.84
2019-03-04T05:11:51.317Z,96820.61
2019-03-04T05:14:18.888Z,96817.44
2019-03-04T05:16:46.479Z,96811.22
2019-03-04T05:19:14.057Z,96826.72
2019-03-04T05:21:41.640Z,96821.86
2019-03-04T05:24:10.355Z,96807.03
2019-03-04T05:26:38.044Z,96811.81
2019-03-04T05:29:05.739Z,96804.36
2019-03-04T05:31:33.395Z,96810.86
2019-03-04T05:34:01.043Z,96810.45
2019-03-04T05:36:29.753Z,96823.58
2019-03-04T05:38:57.544Z,96818.41
2019-03-04T05:41:25.317Z,96824.30
2019-03-04T05:43:54.195Z,96823.23
2019-03-04T05:46:21.821Z,96819.45
2019-03-04T05:48:49.502Z,96825.16
2019-03-04T05:51:17.217Z,96824.08
2019-03-04T05:53:44.911Z,96823.84
2019-03-04T05:56:12.582Z,96822.38
2019-03-04T05:58:40.191Z,96814.97
2019-03-04T06:01:22.223Z,96800.33
2019-03-04T06:03:50.814Z,96812.81
2019-03-04T06:06:38.192Z,96815.36
2019-03-04T06:09:08.240Z,96817.28
2019-03-04T06:11:35.908Z,96812.35
2019-03-04T06:14:05.553Z,96815.30
2019-03-04T06:16:33.214Z,96815.44
2019-03-04T06:19:01.028Z,96811.95
2019-03-04T06:21:28.688Z,96801.79
2019-03-04T06:23:56.351Z,96798.74
2019-03-04T06:26:24.018Z,96803.70
2019-03-04T06:28:51.653Z,96810.48
2019-03-04T06:31:19.244Z,96812.84
2019-03-04T06:33:46.775Z,96813.97
2019-03-04T06:36:14.451Z,96812.30
2019-03-04T06:38:42.009Z,96809.17
2019-03-04T06:41:09.621Z,96812.12
2019-03-04T06:43:37.245Z,96815.52
2019-03-04T06:46:04.791Z,96819.53
2019-03-04T06:48:32.438Z,96812.64
2019-03-04T06:51:00.408Z,96806.09
2019-03-04T06:54:01.735Z,96803.56
2019-03-04T06:56:39.067Z,96803.09
2019-03-04T06:59:18.734Z,96792.87
2019-03-04T07:01:49.979Z,96796.38
2019-03-04T07:04:55.046Z,96787.44
2019-03-04T07:07:22.597Z,96779.36
2019-03-04T07:09:50.206Z,96778.13
2019-03-04T07:12:17.765Z,96784.31
2019-03-04T07:14:45.444Z,96787.14
2019-03-04T07:17:13.012Z,96781.76
2019-03-04T07:19:40.671Z,96778.91
2019-03-04T07:22:08.317Z,96788.17
2019-03-04T07:24:35.998Z,96785.79
2019-03-04T07:27:03.701Z,96778.94
2019-03-04T07:29:31.430Z,96776.57
2019-03-04T07:31:59.064Z,96784.31
2019-03-04T07:34:26.843Z,96782.17
2019-03-04T07:36:57.451Z,96773.88
2019-03-04T07:39:25.137Z,96777.13
2019-03-04T07:41:56.988Z,96776.52
2019-03-04T07:44:24.640Z,96776.77
2019-03-04T07:46:53.820Z,96775.93
2019-03-04T07:49:21.515Z,96768.56
2019-03-04T07:51:49.503Z,96772.02
2019-03-04T07:54:17.278Z,96756.06
2019-03-04T07:56:44.922Z,96747.92
2019-03-04T07:59:12.604Z,96746.25
2019-03-04T08:01:40.236Z,96741.47
2019-03-04T08:04:07.899Z,96738.36
2019-03-04T08:06:35.802Z,96730.03
2019-03-04T08:09:54.480Z,96722.30
2019-03-04T08:12:50.357Z,96721.23
2019-03-04T08:15:17.877Z,96714.03
2019-03-04T08:17:45.662Z,96719.91
2019-03-04T08:20:13.655Z,96708.41
2019-03-04T08:22:41.356Z,96702.83
2019-03-04T08:25:16.144Z,96697.31
2019-03-04T08:27:43.837Z,96692.20
2019-03-04T08:30:19.375Z,96699.29
2019-03-04T08:32:47.022Z,96702.88
2019-03-04T08:35:14.769Z,96700.17
2019-03-04T08:37:42.465Z,96692.05
2019-03-04T08:40:11.124Z,96688.77
2019-03-04T08:42:39.852Z,96682.52
2019-03-04T08:45:08.293Z,96685.59
2019-03-04T08:47:35.966Z,96671.43
2019-03-04T08:50:04.777Z,96661.75
2019-03-04T08:52:32.475Z,96651.94
2019-03-04T08:55:00.101Z,96647.76
2019-03-04T08:57:27.928Z,96630.17
2019-03-04T08:59:55.585Z,96630.05
2019-03-04T09:02:24.559Z,96644.31
2019-03-04T09:04:52.109Z,96650.85
2019-03-04T09:07:19.778Z,96647.39
2019-03-04T09:09:47.484Z,96626.24
2019-03-04T09:12:15.138Z,96617.96
2019-03-04T09:14:44.448Z,96619.34
2019-03-04T09:17:12.152Z,96618.70
2019-03-04T09:19:42.608Z,96618.70
2019-03-04T09:22:10.314Z,96614.66
2019-03-04T09:24:37.930Z,96602.83
2019-03-04T09:27:06.200Z,96588.59
2019-03-04T09:29:33.857Z,96574.41
2019-03-04T09:32:01.461Z,96572.94
2019-03-04T09:34:29.181Z,96575.70
2019-03-04T09:36:56.883Z,96590.95
2019-03-04T09:39:24.623Z,96580.56
2019-03-04T09:41:56.416Z,96586.83
2019-03-04T09:44:24.101Z,96581.84
2019-03-04T09:46:51.764Z,96584.84
2019-03-04T09:49:19.289Z,96573.11
2019-03-04T09:51:46.878Z,96576.92
2019-03-04T09:54:14.474Z,96572.05
2019-03-04T09:56:42.111Z,96573.42
2019-03-04T09:59:09.642Z,96555.64
2019-03-04T10:01:49.941Z,96557.52
2019-03-04T10:04:57.833Z,96556.85
2019-03-04T10:07:56.052Z,96554.52
2019-03-04T10:10:38.347Z,96550.66
2019-03-04T10:14:02.855Z,96542.23
2019-03-04T10:16:52.779Z,96535.98
2019-03-04T10:20:00.808Z,96532.69
2019-03-04T10:22:40.711Z,96517.42
2019-03-04T10:25:55.295Z,96511.73
2019-03-04T10:29:04.022Z,96492.64
2019-03-04T10:31:40.786Z,96483.11
2019-03-04T10:34:52.183Z,96475.92
2019-03-04T10:37:43.043Z,96462.36
2019-03-04T10:40:46.389Z,96464.19
2019-03-04T10:43:42.828Z,96473.92
2019-03-04T10:46:49.900Z,96480.24
2019-03-04T10:49:17.516Z,96483.92
2019-03-04T10:51:45.047Z,96492.66
2019-03-04T10:54:12.609Z,96476.20
2019-03-04T10:56:42.371Z,96471.53
2019-03-04T10:59:09.836Z,96458.78
2019-03-04T11:01:37.451Z,96461.48
2019-03-04T11:04:05.152Z,96453.27
2019-03-04T11:06:32.742Z,96441.07
2019-03-04T11:09:00.378Z,96437.06
2019-03-04T11:11:30.037Z,96432.70
2019-03-04T11:13:57.480Z,96426.83
2019-03-04T11:16:25.052Z,96422.97
2019-03-04T11:18:52.621Z,96412.95
2019-03-04T11:21:23.132Z,96397.19
2019-03-04T11:23:50.743Z,96397.70
2019-03-04T11:26:18.313Z,96397.20
2019-03-04T11:28:45.954Z,96400.20
2019-03-04T11:31:13.544Z,96390.52
2019-03-04T11:33:41.335Z,96383.98
2019-03-04T11:36:09.034Z,96377.12
2019-03-04T11:38:41.973Z,96362.55
2019-03-04T11:41:12.047Z,96368.59
2019-03-04T11:43:39.633Z,96355.67
2019-03-04T11:46:07.314Z,96347.64
2019-03-04T11:48:34.870Z,96341.58
2019-03-04T11:51:02.532Z,96348.62
2019-03-04T11:53:30.102Z,96335.39
2019-03-04T11:55:57.725Z,96333.02
2019-03-04T11:58:25.339Z,96326.14
2019-03-04T12:01:12.565Z,96320.77
2019-03-04T12:03:40.157Z,96317.07
2019-03-04T12:06:08.071Z,96303.80
2019-03-04T12:08:35.659Z,96299.50
2019-03-04T12:11:03.254Z,96309.59
2019-03-04T12:13:30.936Z,96296.36
2019-03-04T12:15:58.598Z,96279.64
2019-03-04T12:18:26.174Z,96286.66
2019-03-04T12:20:54.329Z,96273.78
2019-03-04T12:23:23.100Z,96268.77
2019-03-04T12:25:50.795Z,96254.19
2019-03-04T12:28:19.656Z,96250.55
2019-03-04T12:30:47.352Z,96253.87
2019-03-04T12:33:14.951Z,96248.38
2019-03-04T12:35:42.760Z,96240.54
2019-03-04T12:38:10.332Z,96234.19
2019-03-04T12:40:37.965Z,96248.39
2019-03-04T12:43:05.479Z,96224.80
2019-03-04T12:45:34.682Z,96223.14
2019-03-04T12:48:02.464Z,96205.06
2019-03-04T12:50:30.368Z,96200.53
2019-03-04T12:52:57.920Z,96202.82
2019-03-04T12:55:25.600Z,96186.55
2019-03-04T12:57:53.222Z,96180.77
2019-03-04T13:00:21.307Z,96180.95
2019-03-04T13:02:57.185Z,96178.80
2019-03-04T13:05:18.581Z,96176.12
2019-03-04T13:07:47.172Z,96172.25
2019-03-04T13:10:15.004Z,96155.83
2019-03-04T13:12:42.966Z,96152.57
2019-03-04T13:15:15.729Z,96145.04
2019-03-04T13:17:47.575Z,96152.00
2019-03-04T13:20:15.378Z,96158.34
2019-03-04T13:22:43.019Z,96155.22
2019-03-04T13:25:10.644Z,96148.66
2019-03-04T13:27:38.298Z,96135.96
2019-03-04T13:30:08.080Z,96139.34
2019-03-04T13:32:35.628Z,96134.99
2019-03-04T13:35:03.822Z,96129.90
2019-03-04T13:37:31.528Z,96120.16
2019-03-04T13:39:59.203Z,96123.13
2019-03-04T13:42:26.832Z,96122.73
2019-03-04T13:44:54.451Z,96101.80
2019-03-04T13:47:22.053Z,96093.78
2019-03-04T13:49:49.640Z,96097.34
2019-03-04T13:52:17.265Z,96082.09
2019-03-04T13:54:44.822Z,96076.06
2019-03-04T13:57:13.447Z,96072.18
2019-03-04T13:59:41.052Z,96068.69
2019-03-04T14:02:10.220Z,96053.64
2019-03-04T14:04:37.843Z,96049.30
2019-03-04T14:07:05.573Z,96043.92
2019-03-04T14:09:33.154Z,96040.36
2019-03-04T14:12:02.383Z,96038.19
2019-03-04T14:14:30.003Z,96036.77
2019-03-04T14:16:57.760Z,96038.59
2019-03-04T14:19:26.571Z,96023.26
2019-03-04T14:21:54.337Z,96014.17
2019-03-04T14:24:21.860Z,96014.91
2019-03-04T14:26:49.510Z,96010.75
2019-03-04T14:29:17.066Z,96021.81
2019-03-04T14:31:44.660Z,96012.31
2019-03-04T14:34:12.228Z,96016.03
2019-03-04T14:36:39.843Z,95998.97
2019-03-04T14:39:12.877Z,96008.96
2019-03-04T14:41:40.499Z,96011.32
2019-03-04T14:44:08.119Z,96011.65
2019-03-04T14:46:35.808Z,96002.78
2019-03-04T14:49:03.491Z,96008.47
2019-03-04T14:51:31.749Z,96009.74
2019-03-04T14:53:59.315Z,96014.98
2019-03-04T14:56:29.819Z,96018.80
2019-03-04T14:59:10.516Z,96007.30
2019-03-04T15:01:27.104Z,96017.03
2019-03-04T15:03:54.663Z,96010.45
2019-03-04T15:06:22.343Z,96017.26
2019-03-04T15:08:49.891Z,96010.28
2019-03-04T15:11:17.570Z,96008.38
2019-03-04T15:13:45.117Z,96011.72
2019-03-04T15:16:12.899Z,96014.04
2019-03-04T15:18:40.514Z,96012.17
2019-03-04T15:21:08.196Z,96018.63
2019-03-04T15:23:35.796Z,96008.42
2019-03-04T15:26:06.329Z,96018.33
2019-03-04T15:28:33.899Z,96021.00
2019-03-04T15:31:02.257Z,96018.66
2019-03-04T15:33:32.022Z,96031.55
2019-03-04T15:36:00.079Z,96017.11
2019-03-04T15:38:27.731Z,96015.80
2019-03-04T15:40:55.381Z,96018.14
2019-03-04T15:43:23.222Z,96030.22
2019-03-04T15:45:51.950Z,96012.64
2019-03-04T15:48:22.568Z,96033.52
2019-03-04T15:50:52.087Z,96023.80
2019-03-04T15:53:20.028Z,96018.36
2019-03-04T15:55:47.685Z,96019.70
2019-03-04T15:58:15.347Z,96020.59
2019-03-04T16:00:42.897Z,96009.48
2019-03-04T16:03:10.543Z,96010.84
2019-03-04T16:05:38.202Z,96029.20
2019-03-04T16:08:07.792Z,96041.14
2019-03-04T16:10:36.542Z,96015.80
2019-03-04T16:13:04.850Z,96028.33
2019-03-04T16:15:33.333Z,96026.36
2019-03-04T16:18:02.377Z,96022.19
2019-03-04T16:20:30.034Z,96034.09
2019-03-04T16:22:57.922Z,96041.59
2019-03-04T16:25:27.553Z,96045.78
2019-03-04T16:28:01.258Z,96046.60
2019-03-04T16:30:28.934Z,96054.27
2019-03-04T16:32:57.063Z,96067.27
2019-03-04T16:35:24.714Z,96059.88
2019-03-04T16:37:52.341Z,96070.16
2019-03-04T16:40:21.911Z,96069.17
2019-03-04T16:42:49.583Z,96081.84
2019-03-04T16:45:18.189Z,96081.00
2019-03-04T16:47:46.035Z,96084.81
2019-03-04T16:50:14.090Z,96104.75
2019-03-04T16:52:42.103Z,96098.72
2019-03-04T16:55:11.567Z,96104.02
2019-03-04T16:57:39.154Z,96098.97
2019-03-04T17:00:08.688Z,96105.24
2019-03-04T17:02:37.042Z,96116.55
2019-03-04T17:05:05.566Z,96111.31
2019-03-04T17:07:33.617Z,96112.77
2019-03-04T17:10:01.255Z,96115.18
2019-03-04T17:12:29.042Z,96105.51
2019-03-04T17:14:56.766Z,96094.19
2019-03-04T17:17:24.767Z,96115.53
2019-03-04T17:19:52.558Z,96109.16
2019-03-04T17:22:20.289Z,96113.16
2019-03-04T17:24:48.059Z,96107.03
2019-03-04T17:27:15.767Z,96104.88
2019-03-04T17:29:43.442Z,96095.27
2019-03-04T17:32:11.357Z,96101.97
2019-03-04T17:34:39.147Z,96106.13
2019-03-04T17:37:07.017Z,96103.80
2019-03-04T17:39:34.832Z,96115.16
2019-03-04T17:42:02.709Z,96127.60
2019-03-04T17:44:30.482Z,96117.28
2019-03-04T17:46:58.388Z,96123.45
2019-03-04T17:49:27.097Z,96131.93
2019-03-04T17:51:54.744Z,96123.24
2019-03-04T17:54:22.443Z,96120.42
2019-03-04T17:56:53.109Z,96142.05
2019-03-04T17:59:20.788Z,96158.38
2019-03-04T18:01:48.446Z,96157.88
2019-03-04T18:04:16.095Z,96167.16
2019-03-04T18:06:43.771Z,96173.33
2019-03-04T18:09:11.443Z,96171.48
2019-03-04T18:11:39.257Z,96182.81
2019-03-04T18:14:07.500Z,96173.33
2019-03-04T18:16:35.143Z,96189.32
2019-03-04T18:19:02.989Z,96185.03
2019-03-04T18:21:30.592Z,96191.78
2019-03-04T18:23:58.677Z,96204.44
2019-03-04T18:26:57.322Z,96224.20
2019-03-04T18:29:58.499Z,96237.23
2019-03-04T18:33:07.054Z,96254.34
2019-03-04T18:36:18.225Z,96284.13
2019-03-04T18:39:34.093Z,96304.50
2019-03-04T18:42:44.945Z,96318.68
2019-03-04T18:45:52.939Z,96322.20
2019-03-04T18:48:55.840Z,96359.31
2019-03-04T18:51:23.624Z,96375.89
2019-03-04T18:53:53.066Z,96399.28
2019-03-04T18:56:22.189Z,96414.80
2019-03-04T18:58:50.303Z,96428.03
2019-03-04T19:01:18.351Z,96432.26
2019-03-04T19:03:46.110Z,96442.37
2019-03-04T19:06:14.281Z,96458.95
2019-03-04T19:08:42.219Z,96467.81
2019-03-04T19:11:09.942Z,96475.41
2019-03-04T19:13:37.823Z,96483.24
2019-03-04T19:16:05.738Z,96487.95
2019-03-04T19:18:33.361Z,96498.69
2019-03-04T19:21:01.235Z,96510.34
2019-03-04T19:23:28.848Z,96523.59
2019-03-04T19:25:56.610Z,96539.36
2019-03-04T19:28:24.215Z,96540.20
2019-03-04T19:30:51.975Z,96529.60
2019-03-04T19:33:19.819Z,96525.20
2019-03-04T19:35:47.594Z,96537.70
2019-03-04T19:38:15.247Z,96548.02
2019-03-04T19:40:42.962Z,96561.43
2019-03-04T19:43:10.582Z,96541.53
2019-03-04T19:45:38.296Z,96546.50
2019-03-04T19:48:06.018Z,96542.19
2019-03-04T19:50:37.231Z,96529.23
2019-03-04T19:53:05.145Z,96551.66
2019-03-04T19:55:32.825Z,96551.94
2019-03-04T19:58:00.484Z,96546.00
2019-03-04T20:00:29.585Z,96559.31
2019-03-04T20:02:57.470Z,96549.89
2019-03-04T20:05:25.298Z,96533.34
2019-03-04T20:07:53.179Z,96560.24
2019-03-04T20:10:24.502Z,96563.99
2019-03-04T20:12:52.831Z,96576.59
2019-03-04T20:15:21.461Z,96585.23
2019-03-04T20:17:49.277Z,96596.89
2019-03-04T20:20:17.097Z,96612.20
2019-03-04T20:22:45.136Z,96617.33
2019-03-04T20:25:12.878Z,96616.06
2019-03-04T20:27:40.491Z,96611.29
2019-03-04T20:30:09.074Z,96614.06
2019-03-04T20:32:36.676Z,96592.86
2019-03-04T20:35:05.801Z,96577.83
2019-03-04T20:37:35.046Z,96556.36
2019-03-04T20:40:03.439Z,96538.94
2019-03-04T20:42:31.340Z,96525.19
2019-03-04T20:44:58.992Z,96503.63
2019-03-04T20:47:26.657Z,96494.25
2019-03-04T20:49:54.235Z,96504.19
2019-03-04T20:52:21.865Z,96495.61
2019-03-04T20:54:49.576Z,96505.88
2019-03-04T20:57:17.343Z,96506.11
2019-03-04T20:59:45.049Z,96500.89
2019-03-04T21:02:12.826Z,96492.84
2019-03-04T21:04:40.491Z,96485.08
2019-03-04T21:07:08.268Z,96487.45
2019-03-04T21:09:35.925Z,96468.48
2019-03-04T21:12:03.999Z,96490.86
2019-03-04T21:14:31.632Z,96500.94
2019-03-04T21:16:59.354Z,96506.52
2019-03-04T21:19:27.045Z,96510.05
2019-03-04T21:21:55.627Z,96509.13
2019-03-04T21:24:23.325Z,96500.81
2019-03-04T21:26:50.991Z,96471.87
2019-03-04T21:29:53.194Z,96480.03
2019-03-04T21:33:00.839Z,96510.67
2019-03-04T21:36:22.372Z,96493.42
2019-03-04T21:38:50.600Z,96485.05
2019-03-04T21:41:46.661Z,96468.94
2019-03-04T21:45:00.286Z,96490.75
2019-03-04T21:47:44.500Z,96470.91
2019-03-04T21:50:14.807Z,96463.09
2019-03-04T21:53:10.377Z,96464.51
2019-03-04T21:55:43.390Z,96454.06
2019-03-04T21:58:13.681Z,96440.11
2019-03-04T22:00:42.918Z,96453.66
2019-03-04T22:03:16.676Z,96449.61
2019-03-04T22:05:50.173Z,96480.22
2019-03-04T22:08:13.989Z,96483.33
2019-03-04T22:10:41.591Z,96484.06
2019-03-04T22:13:09.541Z,96475.34
2019-03-04T22:15:37.156Z,96493.63
2019-03-04T22:18:06.017Z,96503.48
2019-03-04T22:20:33.778Z,96510.55
2019-03-04T22:23:01.538Z,96521.75
2019-03-04T22:25:29.140Z,96530.16
2019-03-04T22:27:56.890Z,96528.66
2019-03-04T22:30:24.673Z,96526.71
2019-03-04T22:32:52.486Z,96536.28
2019-03-04T22:35:20.879Z,96538.45
2019-03-04T22:37:48.584Z,96547.02
2019-03-04T22:40:18.461Z,96555.50
2019-03-04T22:42:47.695Z,96583.82
2019-03-04T22:45:16.478Z,96583.24
2019-03-04T22:47:45.897Z,96601.53
2019-03-04T22:50:14.363Z,96594.17
2019-03-04T22:52:41.982Z,96610.72
2019-03-04T22:55:12.462Z,96611.27
2019-03-04T22:57:40.145Z,96614.84
2019-03-04T23:01:03.077Z,96599.33
2019-03-04T23:03:31.115Z,96601.03
2019-03-04T23:05:58.782Z,96601.97
2019-03-04T23:08:26.474Z,96591.52
2019-03-04T23:10:54.232Z,96591.36
2019-03-04T23:13:48.187Z,96594.84
2019-03-04T23:16:18.932Z,96600.29
2019-03-04T23:18:46.851Z,96605.56
2019-03-04T23:21:14.515Z,96614.39
2019-03-04T23:23:43.989Z,96610.44
2019-03-04T23:26:11.842Z,96616.39
2019-03-04T23:28:39.491Z,96613.64
2019-03-04T23:31:09.848Z,96624.77
2019-03-04T23:33:37.587Z,96630.04
2019-03-04T23:36:05.202Z,96633.41
2019-03-04T23:38:33.158Z,96647.80
2019-03-04T23:41:00.840Z,96652.20
2019-03-04T23:43:28.789Z,96650.59
2019-03-04T23:45:56.472Z,96647.22
2019-03-04T23:48:24.146Z,96651.61
2019-03-04T23:50:52.135Z,96657.39
2019-03-04T23:53:19.803Z,96668.45
2019-03-04T23:55:47.423Z,96671.09
2019-03-04T23:58:15.052Z,96681.22
